Time;durP1;ratioP1;P1;durP2;ratioP2;P2;SDS_P1;SDS_P2;PMS_P1;PMS_P2;Temp;Humidity;BMP_temperature;BMP_pressure;BME280_temperature;BME280_humidity;BME280_pressure;Samples;Min_cycle;Max_cycle;Signal;HPM_P1;HPM_P2
2022/03/21 00:01:02;;;;;;;31.50;19.83;;;;;;;;;;5061092;28;20034;-75
2022/03/21 00:03:29;;;;;;;36.73;19.17;;;;;;;;;;5080953;28;20536;-75
2022/03/21 00:05:56;;;;;;;34.87;21.13;;;;;;;;;;5078623;28;20032;-75
2022/03/21 00:08:24;;;;;;;33.97;19.53;;;;;;;;;;5086157;28;20036;-75
2022/03/21 00:10:51;;;;;;;34.47;19.20;;;;;;;;;;5076447;28;20029;-75
2022/03/21 00:13:17;;;;;;;39.97;19.90;;;;;;;;;;5076135;28;20021;-75
2022/03/21 00:15:45;;;;;;;36.20;18.43;;;;;;;;;;5076512;28;20171;-75
2022/03/21 00:18:14;;;;;;;34.83;20.60;;;;;;;;;;5075982;28;20360;-75
2022/03/21 00:20:42;;;;;;;43.00;21.33;;;;;;;;;;5075859;28;20111;-75
2022/03/21 00:23:09;;;;;;;37.10;20.83;;;;;;;;;;5075219;28;20064;-76
2022/03/21 00:25:35;;;;;;;32.53;19.20;;;;;;;;;;5076544;28;20037;-77
2022/03/21 00:28:02;;;;;;;33.73;18.87;;;;;;;;;;5075607;28;20062;-76
2022/03/21 00:30:29;;;;;;;33.93;18.80;;;;;;;;;;5075797;28;20024;-76
2022/03/21 00:32:56;;;;;;;31.53;19.20;;;;;;;;;;5075813;28;20515;-77
2022/03/21 00:35:22;;;;;;;33.60;19.43;;;;;;;;;;5073357;28;20040;-74
2022/03/21 00:37:49;;;;;;;32.30;18.27;;;;;;;;;;5083710;28;20463;-74
2022/03/21 00:40:16;;;;;;;33.43;17.43;;;;;;;;;;5082775;28;20035;-76
2022/03/21 00:42:44;;;;;;;32.03;16.90;;;;;;;;;;5084111;28;20539;-75
2022/03/21 00:45:12;;;;;;;24.83;16.37;;;;;;;;;;5096282;28;20039;-76
2022/03/21 00:47:38;;;;;;;31.30;15.53;;;;;;;;;;5086715;28;20034;-76
2022/03/21 00:50:09;;;;;;;31.87;17.73;;;;;;;;;;5075694;28;20113;-76
2022/03/21 00:52:45;;;;;;;30.30;15.27;;;;;;;;;;5075174;28;20024;-75
2022/03/21 00:55:12;;;;;;;25.77;15.37;;;;;;;;;;5074667;28;20389;-75
2022/03/21 00:57:40;;;;;;;25.47;13.87;;;;;;;;;;5085730;28;20115;-75
2022/03/21 01:00:08;;;;;;;24.70;13.10;;;;;;;;;;5075822;28;20028;-75
2022/03/21 01:02:36;;;;;;;21.37;12.37;;;;;;;;;;5075514;28;20052;-75
2022/03/21 01:05:02;;;;;;;21.73;11.60;;;;;;;;;;5075133;28;20116;-75
2022/03/21 01:07:29;;;;;;;24.73;11.83;;;;;;;;;;5074908;28;20040;-75
2022/03/21 01:09:55;;;;;;;24.30;11.80;;;;;;;;;;5074960;28;20036;-75
2022/03/21 01:12:21;;;;;;;23.63;12.33;;;;;;;;;;5074346;28;20036;-75
2022/03/21 01:14:48;;;;;;;24.53;11.97;;;;;;;;;;5073894;28;20473;-75
2022/03/21 01:17:14;;;;;;;20.90;11.83;;;;;;;;;;5076564;28;20467;-76
2022/03/21 01:19:41;;;;;;;21.53;12.03;;;;;;;;;;5062805;28;20028;-75
2022/03/21 01:22:07;;;;;;;18.40;10.30;;;;;;;;;;5081896;28;20032;-75
2022/03/21 01:24:35;;;;;;;20.70;10.47;;;;;;;;;;5073625;28;20057;-75
2022/03/21 01:27:11;;;;;;;28.83;12.00;;;;;;;;;;5074521;28;20031;-77
2022/03/21 01:29:37;;;;;;;26.23;10.60;;;;;;;;;;5072224;28;20045;-77
2022/03/21 01:32:04;;;;;;;15.73;9.93;;;;;;;;;;5074685;28;20491;-75
2022/03/21 01:34:30;;;;;;;19.53;10.97;;;;;;;;;;5073741;28;20032;-75
2022/03/21 01:36:57;;;;;;;23.17;11.90;;;;;;;;;;5074101;28;20039;-76
2022/03/21 01:39:23;;;;;;;17.50;9.87;;;;;;;;;;5074714;28;20035;-75
2022/03/21 01:41:50;;;;;;;20.57;10.63;;;;;;;;;;5092271;28;20077;-74
2022/03/21 01:44:17;;;;;;;18.33;10.20;;;;;;;;;;5081063;28;20166;-75
2022/03/21 01:46:47;;;;;;;20.53;9.60;;;;;;;;;;5054701;28;20052;-75
2022/03/21 01:49:13;;;;;;;17.27;9.87;;;;;;;;;;5073886;28;20101;-75
2022/03/21 01:51:43;;;;;;;24.60;12.63;;;;;;;;;;5073600;28;20064;-75
2022/03/21 01:56:55;;;;;;;29.55;11.07;;;;;;;;;;5074216;28;20035;-75
2022/03/21 01:59:21;;;;;;;21.85;11.15;;;;;;;;;;5074117;28;20036;-76
2022/03/21 02:01:48;;;;;;;22.08;10.90;;;;;;;;;;5072236;28;20025;-75
2022/03/21 02:04:15;;;;;;;20.88;11.23;;;;;;;;;;5072008;28;20115;-76
2022/03/21 02:06:44;;;;;;;20.65;10.95;;;;;;;;;;5072583;28;20028;-76
2022/03/21 02:09:11;;;;;;;30.33;12.90;;;;;;;;;;5073307;28;20090;-76
2022/03/21 02:11:37;;;;;;;27.00;12.18;;;;;;;;;;5072626;28;20025;-76
2022/03/21 02:14:05;;;;;;;26.30;13.70;;;;;;;;;;5070698;28;20168;-76
2022/03/21 02:16:33;;;;;;;28.85;15.30;;;;;;;;;;5071744;28;20128;-76
2022/03/21 02:19:00;;;;;;;35.75;17.60;;;;;;;;;;5077649;28;20111;-74
2022/03/21 02:21:37;;;;;;;33.67;17.55;;;;;;;;;;5072629;28;20082;-76
2022/03/21 02:24:08;;;;;;;39.90;20.15;;;;;;;;;;5081059;28;20078;-74
2022/03/21 02:26:36;;;;;;;41.95;20.98;;;;;;;;;;5076681;28;20437;-75
2022/03/21 02:29:03;;;;;;;48.65;24.48;;;;;;;;;;5073568;28;20482;-75
2022/03/21 02:31:34;;;;;;;47.88;24.60;;;;;;;;;;5071143;28;20033;-75
2022/03/21 02:34:00;;;;;;;45.95;26.63;;;;;;;;;;5072722;28;20032;-75
2022/03/21 02:36:27;;;;;;;58.65;28.52;;;;;;;;;;5069528;28;20032;-75
2022/03/21 02:38:55;;;;;;;60.35;32.53;;;;;;;;;;5070662;28;20032;-75
2022/03/21 02:41:22;;;;;;;64.10;34.83;;;;;;;;;;5072324;28;20036;-75
2022/03/21 02:43:55;;;;;;;68.40;35.88;;;;;;;;;;5073163;28;20395;-75
2022/03/21 02:46:22;;;;;;;57.97;34.38;;;;;;;;;;5072061;28;20081;-75
2022/03/21 02:48:49;;;;;;;66.20;35.92;;;;;;;;;;5070753;28;20073;-75
2022/03/21 02:51:16;;;;;;;58.65;34.05;;;;;;;;;;5071249;28;20036;-75
2022/03/21 02:53:44;;;;;;;58.17;33.58;;;;;;;;;;5072374;28;20028;-75
2022/03/21 02:56:10;;;;;;;57.15;33.30;;;;;;;;;;5054052;28;20029;-75
2022/03/21 02:58:36;;;;;;;60.15;33.35;;;;;;;;;;5066439;28;20035;-74
2022/03/21 03:01:09;;;;;;;59.42;34.03;;;;;;;;;;5070921;28;20089;-74
2022/03/21 03:03:36;;;;;;;60.35;34.03;;;;;;;;;;5069814;28;20417;-74
2022/03/21 03:06:02;;;;;;;57.65;31.65;;;;;;;;;;5077888;28;20025;-74
2022/03/21 03:08:29;;;;;;;54.10;30.65;;;;;;;;;;5076320;28;20462;-75
2022/03/21 03:10:55;;;;;;;51.03;29.80;;;;;;;;;;5079295;28;20392;-76
2022/03/21 03:13:22;;;;;;;59.25;32.30;;;;;;;;;;5053853;28;20025;-76
2022/03/21 03:15:48;;;;;;;52.13;31.48;;;;;;;;;;5081022;28;20020;-76
2022/03/21 03:18:15;;;;;;;49.88;30.00;;;;;;;;;;5076832;28;20117;-75
2022/03/21 03:20:51;;;;;;;47.60;28.48;;;;;;;;;;5072589;28;20112;-75
2022/03/21 03:23:21;;;;;;;48.90;27.77;;;;;;;;;;5072645;28;20041;-76
2022/03/21 03:25:48;;;;;;;47.25;28.88;;;;;;;;;;5067189;28;20150;-76
2022/03/21 03:28:14;;;;;;;48.47;29.10;;;;;;;;;;5068429;28;20403;-75
2022/03/21 03:30:41;;;;;;;54.20;30.58;;;;;;;;;;5063943;28;20484;-76
2022/03/21 03:33:08;;;;;;;49.92;28.55;;;;;;;;;;5064500;28;20090;-76
2022/03/21 03:35:35;;;;;;;48.90;28.65;;;;;;;;;;5068961;28;20066;-76
2022/03/21 03:38:01;;;;;;;46.42;27.98;;;;;;;;;;5069234;28;20044;-76
2022/03/21 03:40:28;;;;;;;41.08;22.83;;;;;;;;;;5069116;28;20032;-75
2022/03/21 03:42:54;;;;;;;31.15;19.77;;;;;;;;;;5066538;28;20029;-75
2022/03/21 03:45:20;;;;;;;29.25;15.55;;;;;;;;;;5069496;28;20036;-76
2022/03/21 03:47:47;;;;;;;22.73;12.50;;;;;;;;;;5070384;28;20471;-75
2022/03/21 03:50:13;;;;;;;23.77;11.82;;;;;;;;;;5065442;28;20031;-75
2022/03/21 03:52:40;;;;;;;25.67;14.68;;;;;;;;;;5072491;28;20100;-75
2022/03/21 03:55:07;;;;;;;29.73;16.42;;;;;;;;;;5071974;28;20201;-75
2022/03/21 03:57:34;;;;;;;25.48;16.40;;;;;;;;;;5065484;28;20052;-76
2022/03/21 04:00:00;;;;;;;28.70;17.13;;;;;;;;;;5065680;28;20024;-75
2022/03/21 04:02:26;;;;;;;32.60;19.92;;;;;;;;;;5074900;28;20026;-76
2022/03/21 04:04:52;;;;;;;45.92;27.63;;;;;;;;;;5068570;28;20360;-75
2022/03/21 04:07:19;;;;;;;39.03;21.38;;;;;;;;;;5067151;28;20119;-75
2022/03/21 04:09:45;;;;;;;35.65;19.80;;;;;;;;;;5049069;28;20036;-76
2022/03/21 04:12:12;;;;;;;30.17;19.73;;;;;;;;;;5070455;28;20044;-76
2022/03/21 04:14:38;;;;;;;34.15;21.27;;;;;;;;;;5073793;28;20437;-76
2022/03/21 04:17:04;;;;;;;42.08;23.90;;;;;;;;;;5070043;28;20371;-75
2022/03/21 04:19:31;;;;;;;32.88;21.38;;;;;;;;;;5070815;28;20043;-76
2022/03/21 04:21:57;;;;;;;26.35;15.52;;;;;;;;;;5052059;28;20468;-76
2022/03/21 04:24:23;;;;;;;30.48;15.82;;;;;;;;;;5069400;28;20094;-75
2022/03/21 04:26:49;;;;;;;27.90;15.63;;;;;;;;;;5073665;28;20025;-75
2022/03/21 04:29:16;;;;;;;28.40;16.00;;;;;;;;;;5074338;28;20043;-75
2022/03/21 04:31:42;;;;;;;29.00;14.68;;;;;;;;;;5072390;28;20111;-77
2022/03/21 04:34:08;;;;;;;22.10;11.32;;;;;;;;;;5070442;28;20074;-76
2022/03/21 04:36:35;;;;;;;21.77;12.80;;;;;;;;;;5070345;28;20079;-75
2022/03/21 04:39:01;;;;;;;33.15;17.25;;;;;;;;;;5071992;28;20054;-75
2022/03/21 04:41:27;;;;;;;33.00;18.35;;;;;;;;;;5074128;28;20103;-76
2022/03/21 04:43:53;;;;;;;36.13;19.08;;;;;;;;;;5072884;28;20373;-75
2022/03/21 04:46:20;;;;;;;33.00;19.05;;;;;;;;;;5074607;28;20458;-75
2022/03/21 04:48:47;;;;;;;26.13;16.50;;;;;;;;;;5065757;28;20040;-76
2022/03/21 04:51:14;;;;;;;23.58;14.95;;;;;;;;;;5071753;28;20066;-76
2022/03/21 04:53:40;;;;;;;28.42;15.75;;;;;;;;;;5074673;28;20099;-76
2022/03/21 04:56:07;;;;;;;22.27;14.27;;;;;;;;;;5074022;28;20453;-77
2022/03/21 04:58:33;;;;;;;24.20;12.73;;;;;;;;;;5081665;28;20036;-75
2022/03/21 05:01:00;;;;;;;16.42;10.52;;;;;;;;;;5068273;28;20032;-75
2022/03/21 05:03:26;;;;;;;17.70;10.07;;;;;;;;;;5071524;28;20032;-76
2022/03/21 05:05:53;;;;;;;17.20;9.40;;;;;;;;;;5068774;28;20028;-75
2022/03/21 05:08:21;;;;;;;15.50;9.50;;;;;;;;;;5068120;28;20518;-75
2022/03/21 05:10:49;;;;;;;13.95;9.00;;;;;;;;;;5071185;28;20070;-74
2022/03/21 05:13:15;;;;;;;16.38;8.65;;;;;;;;;;5074578;28;20012;-75
2022/03/21 05:15:53;;;;;;;16.02;8.60;;;;;;;;;;5051544;28;20114;-77
2022/03/21 05:18:26;;;;;;;17.35;8.05;;;;;;;;;;5070005;28;20058;-76
2022/03/21 05:20:55;;;;;;;14.32;7.57;;;;;;;;;;5069522;28;20028;-77
2022/03/21 05:31:36;;;;;;;16.38;8.07;;;;;;;;;;5074316;28;20031;-76
2022/03/21 05:36:47;;;;;;;17.88;7.28;;;;;;;;;;5067203;28;20502;-77
2022/03/21 05:39:13;;;;;;;13.23;7.18;;;;;;;;;;5056008;28;20033;-75
2022/03/21 05:41:39;;;;;;;14.65;7.35;;;;;;;;;;5074135;28;20051;-77
2022/03/21 05:44:07;;;;;;;18.65;7.38;;;;;;;;;;5074980;28;20032;-77
2022/03/21 05:46:36;;;;;;;16.30;8.15;;;;;;;;;;5069689;28;20040;-75
2022/03/21 05:49:02;;;;;;;14.73;8.65;;;;;;;;;;5072771;28;20036;-77
2022/03/21 05:51:32;;;;;;;17.90;8.80;;;;;;;;;;5078528;28;20024;-76
2022/03/21 05:54:08;;;;;;;19.48;7.47;;;;;;;;;;5071440;28;20100;-76
2022/03/21 05:56:35;;;;;;;25.92;8.77;;;;;;;;;;5073265;28;20032;-76
2022/03/21 06:01:46;;;;;;;18.83;10.02;;;;;;;;;;5072114;28;20044;-76
2022/03/21 06:04:13;;;;;;;43.50;14.20;;;;;;;;;;5067346;28;20032;-77
2022/03/21 06:06:48;;;;;;;33.45;14.05;;;;;;;;;;5069613;28;20067;-76
2022/03/21 06:09:24;;;;;;;22.13;12.40;;;;;;;;;;5070933;28;20036;-75
2022/03/21 06:11:53;;;;;;;22.95;13.23;;;;;;;;;;5070042;28;20024;-76
2022/03/21 06:14:22;;;;;;;24.00;13.13;;;;;;;;;;5052528;28;20032;-75
2022/03/21 06:16:49;;;;;;;24.08;11.90;;;;;;;;;;5049107;28;20036;-77
2022/03/21 06:19:16;;;;;;;29.50;14.27;;;;;;;;;;5075016;28;20510;-77
2022/03/21 06:22:02;;;;;;;27.30;13.65;;;;;;;;;;5070371;28;20584;-78
2022/03/21 06:24:29;;;;;;;31.50;15.48;;;;;;;;;;5041711;28;20048;-76
2022/03/21 06:26:55;;;;;;;32.75;15.05;;;;;;;;;;5040178;28;20036;-75
2022/03/21 06:29:21;;;;;;;30.92;15.35;;;;;;;;;;5041926;28;20106;-76
2022/03/21 06:31:50;;;;;;;36.95;15.18;;;;;;;;;;5045130;28;20036;-76
2022/03/21 06:34:19;;;;;;;32.22;14.50;;;;;;;;;;5046159;28;20048;-76
2022/03/21 06:36:46;;;;;;;32.10;14.18;;;;;;;;;;5042609;28;20032;-75
2022/03/21 06:39:12;;;;;;;31.20;14.98;;;;;;;;;;5044025;28;20028;-77
2022/03/21 06:41:42;;;;;;;25.13;15.18;;;;;;;;;;5046479;28;20032;-76
2022/03/21 06:44:11;;;;;;;28.75;15.10;;;;;;;;;;5044473;28;20127;-77
2022/03/21 06:46:38;;;;;;;25.58;15.68;;;;;;;;;;5048854;28;20030;-78
2022/03/21 06:49:04;;;;;;;31.35;15.82;;;;;;;;;;5053936;28;20025;-76
2022/03/21 06:51:34;;;;;;;27.10;15.80;;;;;;;;;;5047860;28;20036;-75
2022/03/21 06:54:00;;;;;;;30.35;15.85;;;;;;;;;;5043374;28;20546;-76
2022/03/21 06:56:26;;;;;;;30.30;15.70;;;;;;;;;;5044827;28;20042;-76
2022/03/21 06:58:53;;;;;;;27.70;15.20;;;;;;;;;;5046864;28;20047;-77
2022/03/21 07:01:19;;;;;;;36.58;16.15;;;;;;;;;;5056922;28;20390;-76
2022/03/21 07:03:45;;;;;;;27.05;14.82;;;;;;;;;;5047527;28;20035;-76
2022/03/21 07:06:12;;;;;;;28.83;15.18;;;;;;;;;;5046641;28;20123;-77
2022/03/21 07:08:39;;;;;;;23.23;13.88;;;;;;;;;;5050407;28;20037;-76
2022/03/21 07:11:05;;;;;;;27.80;13.40;;;;;;;;;;5047245;28;20043;-75
2022/03/21 07:13:35;;;;;;;25.27;14.23;;;;;;;;;;5045992;28;20091;-76
2022/03/21 07:16:01;;;;;;;24.60;14.85;;;;;;;;;;5044644;28;20044;-76
2022/03/21 07:18:27;;;;;;;25.10;14.05;;;;;;;;;;5048872;28;20469;-76
2022/03/21 07:20:55;;;;;;;17.70;10.48;;;;;;;;;;5049031;28;20032;-75
2022/03/21 07:23:21;;;;;;;17.42;10.30;;;;;;;;;;5058340;28;20041;-75
2022/03/21 07:25:49;;;;;;;20.25;13.50;;;;;;;;;;5070483;28;20462;-78
2022/03/21 07:28:15;;;;;;;23.40;13.30;;;;;;;;;;5067331;28;20063;-76
2022/03/21 07:30:42;;;;;;;18.23;11.63;;;;;;;;;;5049234;28;20054;-76
2022/03/21 07:33:09;;;;;;;21.27;12.07;;;;;;;;;;5065236;28;20021;-76
2022/03/21 07:35:36;;;;;;;24.42;13.10;;;;;;;;;;5069512;28;20524;-77
2022/03/21 07:38:02;;;;;;;21.63;12.68;;;;;;;;;;5071066;28;20040;-76
2022/03/21 07:40:29;;;;;;;26.00;12.18;;;;;;;;;;5071367;28;20028;-76
2022/03/21 07:42:55;;;;;;;37.47;17.13;;;;;;;;;;5064643;28;20033;-75
2022/03/21 07:48:06;;;;;;;29.55;16.77;;;;;;;;;;5067591;28;20090;-77
2022/03/21 07:50:33;;;;;;;25.02;13.95;;;;;;;;;;5070560;28;20032;-77
2022/03/21 07:53:00;;;;;;;31.50;16.77;;;;;;;;;;5067751;28;20032;-77
2022/03/21 07:55:27;;;;;;;37.95;15.70;;;;;;;;;;5071568;28;20024;-77
2022/03/21 07:57:53;;;;;;;28.88;14.88;;;;;;;;;;5065697;28;20036;-77
2022/03/21 08:00:20;;;;;;;29.45;13.30;;;;;;;;;;5066492;28;20029;-76
2022/03/21 08:02:46;;;;;;;36.63;15.57;;;;;;;;;;5074331;28;20032;-78
2022/03/21 08:05:13;;;;;;;30.85;15.32;;;;;;;;;;5073324;28;20028;-77
2022/03/21 08:07:39;;;;;;;31.83;12.98;;;;;;;;;;5074444;28;20032;-77
2022/03/21 08:10:29;;;;;;;35.20;14.63;;;;;;;;;;5069230;28;20047;-76
2022/03/21 08:12:55;;;;;;;42.10;17.58;;;;;;;;;;5067102;28;20032;-77
2022/03/21 08:15:22;;;;;;;35.20;16.38;;;;;;;;;;5070343;28;20024;-76
2022/03/21 08:17:51;;;;;;;40.55;15.55;;;;;;;;;;5071114;28;20024;-76
2022/03/21 08:20:21;;;;;;;32.35;14.45;;;;;;;;;;5071361;28;20039;-75
2022/03/21 08:22:48;;;;;;;27.42;13.10;;;;;;;;;;5070246;28;20052;-76
2022/03/21 08:25:18;;;;;;;25.77;13.63;;;;;;;;;;5068376;28;20038;-76
2022/03/21 08:27:45;;;;;;;22.67;11.70;;;;;;;;;;5066710;28;20051;-77
2022/03/21 08:30:13;;;;;;;15.73;9.05;;;;;;;;;;5068333;28;20473;-75
2022/03/21 08:32:39;;;;;;;22.75;11.90;;;;;;;;;;5070893;28;20541;-77
2022/03/21 08:35:06;;;;;;;28.35;13.48;;;;;;;;;;5071559;28;20028;-76
2022/03/21 08:37:32;;;;;;;31.90;15.48;;;;;;;;;;5065430;28;20120;-77
2022/03/21 08:39:58;;;;;;;32.38;14.60;;;;;;;;;;5067982;28;20021;-76
2022/03/21 08:42:25;;;;;;;30.00;14.00;;;;;;;;;;5068367;28;20457;-76
2022/03/21 08:44:51;;;;;;;34.92;14.02;;;;;;;;;;5068969;28;20036;-76
2022/03/21 08:47:17;;;;;;;27.85;13.10;;;;;;;;;;5069395;28;20509;-77
2022/03/21 08:49:46;;;;;;;30.95;13.35;;;;;;;;;;5066990;28;20043;-76
2022/03/21 08:52:13;;;;;;;23.70;10.40;;;;;;;;;;5071070;28;20051;-75
2022/03/21 08:54:39;;;;;;;18.15;9.98;;;;;;;;;;5070770;28;20425;-77
2022/03/21 08:57:15;;;;;;;20.25;9.93;;;;;;;;;;5072304;28;20501;-76
2022/03/21 08:59:41;;;;;;;21.63;9.13;;;;;;;;;;5069343;28;20028;-77
2022/03/21 09:02:27;;;;;;;20.00;9.38;;;;;;;;;;5076816;28;20527;-77
2022/03/21 09:04:54;;;;;;;17.52;10.77;;;;;;;;;;5080667;28;20028;-76
2022/03/21 09:07:20;;;;;;;19.40;11.13;;;;;;;;;;5072296;28;20025;-76
2022/03/21 09:09:53;;;;;;;17.52;10.18;;;;;;;;;;5074852;28;20035;-77
2022/03/21 09:12:22;;;;;;;25.77;10.57;;;;;;;;;;5067009;28;20078;-77
2022/03/21 09:14:48;;;;;;;21.60;11.52;;;;;;;;;;5072912;28;20062;-77
2022/03/21 09:17:15;;;;;;;21.55;11.45;;;;;;;;;;5070835;28;20052;-78
2022/03/21 09:19:41;;;;;;;26.35;12.90;;;;;;;;;;5073474;28;20681;-77
2022/03/21 09:22:08;;;;;;;23.88;11.20;;;;;;;;;;5065231;28;20033;-76
2022/03/21 09:24:34;;;;;;;23.70;11.00;;;;;;;;;;5069746;28;20051;-76
2022/03/21 09:27:00;;;;;;;20.50;10.32;;;;;;;;;;5056545;28;20035;-75
2022/03/21 09:29:27;;;;;;;15.48;9.85;;;;;;;;;;5067675;28;20036;-77
2022/03/21 09:31:54;;;;;;;22.55;11.20;;;;;;;;;;5068359;28;20016;-76
2022/03/21 09:34:20;;;;;;;20.60;11.90;;;;;;;;;;5071347;28;20061;-76
2022/03/21 09:36:47;;;;;;;20.95;11.65;;;;;;;;;;5073590;28;20050;-76
2022/03/21 09:39:14;;;;;;;17.45;10.57;;;;;;;;;;5073326;28;20475;-76
2022/03/21 09:41:40;;;;;;;24.25;12.70;;;;;;;;;;5070769;28;20024;-77
2022/03/21 09:44:09;;;;;;;20.23;11.30;;;;;;;;;;5075161;28;20032;-77
2022/03/21 09:46:36;;;;;;;19.35;11.68;;;;;;;;;;5072473;28;20626;-77
2022/03/21 09:49:03;;;;;;;25.48;11.98;;;;;;;;;;5072048;28;20581;-76
2022/03/21 09:51:30;;;;;;;24.17;12.90;;;;;;;;;;5057828;28;20070;-76
2022/03/21 09:53:59;;;;;;;25.25;12.95;;;;;;;;;;5074039;28;20099;-77
2022/03/21 09:56:26;;;;;;;18.95;11.73;;;;;;;;;;5078055;28;20048;-78
2022/03/21 09:58:59;;;;;;;22.48;10.35;;;;;;;;;;5065295;28;20417;-76
2022/03/21 10:01:26;;;;;;;19.58;10.40;;;;;;;;;;5069727;28;20020;-76
2022/03/21 10:03:52;;;;;;;17.65;10.15;;;;;;;;;;5071830;28;20486;-75
2022/03/21 10:06:35;;;;;;;19.85;9.82;;;;;;;;;;5053625;28;20494;-76
2022/03/21 10:09:12;;;;;;;18.90;10.75;;;;;;;;;;5075021;28;20020;-77
2022/03/21 10:11:57;;;;;;;17.35;11.07;;;;;;;;;;5075261;28;20016;-76
2022/03/21 10:14:32;;;;;;;17.20;11.13;;;;;;;;;;5070063;28;20039;-77
2022/03/21 10:17:03;;;;;;;15.48;8.77;;;;;;;;;;5071824;28;20023;-76
2022/03/21 10:19:41;;;;;;;17.52;8.15;;;;;;;;;;5071915;28;20025;-75
2022/03/21 10:22:08;;;;;;;12.50;8.25;;;;;;;;;;5067711;28;20042;-76
2022/03/21 10:24:44;;;;;;;16.95;7.20;;;;;;;;;;5067015;28;20061;-76
2022/03/21 10:27:50;;;;;;;12.00;7.28;;;;;;;;;;5065505;28;20093;-76
2022/03/21 10:30:22;;;;;;;11.25;7.72;;;;;;;;;;5067157;28;20024;-77
2022/03/21 10:32:52;;;;;;;12.07;7.85;;;;;;;;;;5069161;28;20028;-76
2022/03/21 10:35:23;;;;;;;13.95;7.97;;;;;;;;;;5073520;28;20099;-76
2022/03/21 10:38:02;;;;;;;13.52;6.43;;;;;;;;;;5072502;28;20455;-76
2022/03/21 10:40:55;;;;;;;11.02;6.85;;;;;;;;;;5052428;28;20040;-76
2022/03/21 10:43:25;;;;;;;14.13;7.88;;;;;;;;;;5060440;28;20036;-77
2022/03/21 10:45:53;;;;;;;9.88;6.32;;;;;;;;;;5072213;28;20051;-75
2022/03/21 10:48:23;;;;;;;13.10;6.72;;;;;;;;;;5071883;28;20040;-76
2022/03/21 10:50:50;;;;;;;11.25;6.72;;;;;;;;;;5074479;28;20042;-77
2022/03/21 10:53:17;;;;;;;10.25;6.65;;;;;;;;;;5072820;28;20451;-78
2022/03/21 10:55:46;;;;;;;11.07;6.57;;;;;;;;;;5076407;28;20111;-76
2022/03/21 10:58:14;;;;;;;10.63;6.13;;;;;;;;;;5072679;28;20024;-77
2022/03/21 11:00:40;;;;;;;10.52;5.65;;;;;;;;;;5066112;28;20029;-77
2022/03/21 11:03:09;;;;;;;9.10;5.45;;;;;;;;;;5075953;28;20012;-76
2022/03/21 11:05:36;;;;;;;9.23;5.38;;;;;;;;;;5070686;28;20062;-75
2022/03/21 11:08:03;;;;;;;8.30;5.47;;;;;;;;;;5071407;28;20021;-77
2022/03/21 11:10:30;;;;;;;7.72;5.40;;;;;;;;;;5068323;28;20058;-78
2022/03/21 11:12:57;;;;;;;9.73;5.40;;;;;;;;;;5068077;28;20063;-77
2022/03/21 11:15:25;;;;;;;11.82;5.60;;;;;;;;;;5068736;28;20024;-77
2022/03/21 11:17:55;;;;;;;8.57;5.65;;;;;;;;;;5067950;28;20063;-80
2022/03/21 11:20:22;;;;;;;9.77;5.60;;;;;;;;;;5063797;28;20052;-76
2022/03/21 11:22:48;;;;;;;12.50;6.15;;;;;;;;;;5068614;28;20061;-77
2022/03/21 11:25:15;;;;;;;10.25;6.43;;;;;;;;;;5074220;28;20028;-77
2022/03/21 11:28:05;;;;;;;10.55;6.35;;;;;;;;;;5071482;28;20056;-77
2022/03/21 11:30:40;;;;;;;11.05;6.15;;;;;;;;;;5073693;28;20036;-78
2022/03/21 11:33:13;;;;;;;9.70;5.75;;;;;;;;;;5069128;28;20044;-77
2022/03/21 11:35:42;;;;;;;13.35;6.63;;;;;;;;;;5076225;28;20375;-77
2022/03/21 11:38:24;;;;;;;9.75;5.85;;;;;;;;;;5070831;28;20025;-76
2022/03/21 11:40:50;;;;;;;9.00;5.68;;;;;;;;;;5071557;28;20024;-76
2022/03/21 11:43:17;;;;;;;9.50;6.32;;;;;;;;;;5071479;28;20044;-78
2022/03/21 11:45:44;;;;;;;14.32;6.93;;;;;;;;;;5071156;28;20486;-77
2022/03/21 11:48:22;;;;;;;11.65;7.72;;;;;;;;;;5061918;28;20036;-76
2022/03/21 11:51:11;;;;;;;12.63;8.02;;;;;;;;;;5068702;28;20402;-75
2022/03/21 11:53:45;;;;;;;12.98;7.20;;;;;;;;;;5060845;28;20135;-76
2022/03/21 11:56:18;;;;;;;11.98;6.50;;;;;;;;;;5068418;28;20020;-76
2022/03/21 11:58:45;;;;;;;12.50;6.82;;;;;;;;;;5070004;28;20033;-76
2022/03/21 12:01:18;;;;;;;13.93;8.05;;;;;;;;;;5065059;28;20481;-76
2022/03/21 12:03:44;;;;;;;10.57;7.07;;;;;;;;;;5064307;28;20505;-77
2022/03/21 12:06:32;;;;;;;15.38;8.05;;;;;;;;;;5068199;28;20031;-76
2022/03/21 12:09:10;;;;;;;12.02;7.97;;;;;;;;;;5071586;28;20074;-77
2022/03/21 12:11:40;;;;;;;15.77;7.90;;;;;;;;;;5068581;28;20043;-77
2022/03/21 12:14:25;;;;;;;11.10;7.47;;;;;;;;;;5060022;28;20090;-75
2022/03/21 12:17:06;;;;;;;13.73;8.77;;;;;;;;;;5064047;28;20039;-77
2022/03/21 12:22:35;;;;;;;15.57;8.52;;;;;;;;;;5065657;28;20024;-75
2022/03/21 12:25:02;;;;;;;14.18;8.60;;;;;;;;;;5053826;28;20130;-76
2022/03/21 12:27:31;;;;;;;13.63;7.43;;;;;;;;;;5076227;28;20028;-77
2022/03/21 12:30:16;;;;;;;15.43;9.25;;;;;;;;;;5079249;28;20062;-78
2022/03/21 12:33:04;;;;;;;19.20;9.93;;;;;;;;;;5064942;28;20097;-76
2022/03/21 12:35:45;;;;;;;14.57;9.20;;;;;;;;;;5072468;28;20028;-76
2022/03/21 12:38:16;;;;;;;14.25;9.38;;;;;;;;;;5073240;28;20028;-76
2022/03/21 12:40:52;;;;;;;14.77;8.75;;;;;;;;;;5079013;28;20532;-75
2022/03/21 12:43:37;;;;;;;13.18;9.02;;;;;;;;;;5073799;28;20033;-75
2022/03/21 12:46:08;;;;;;;15.60;8.57;;;;;;;;;;5074742;28;20021;-77
2022/03/21 12:48:36;;;;;;;13.68;8.80;;;;;;;;;;5079108;28;20115;-76
2022/03/21 12:51:04;;;;;;;16.25;9.35;;;;;;;;;;5071117;28;20031;-75
2022/03/21 12:53:39;;;;;;;14.38;9.57;;;;;;;;;;5070451;28;20036;-75
2022/03/21 12:56:08;;;;;;;14.35;9.68;;;;;;;;;;5066132;28;20028;-76
2022/03/21 12:58:37;;;;;;;20.85;10.43;;;;;;;;;;5077270;28;20091;-76
2022/03/21 13:01:03;;;;;;;22.20;11.40;;;;;;;;;;5080793;28;20028;-75
2022/03/21 13:03:30;;;;;;;19.55;11.75;;;;;;;;;;5077242;28;20033;-76
2022/03/21 13:11:26;;;;;;;21.02;11.55;;;;;;;;;;5074628;28;20379;-76
2022/03/21 13:13:54;;;;;;;22.77;13.68;;;;;;;;;;5074319;28;20029;-75
2022/03/21 13:16:21;;;;;;;22.27;14.23;;;;;;;;;;5054477;28;20029;-75
2022/03/21 13:18:49;;;;;;;20.35;12.30;;;;;;;;;;5070807;28;20115;-77
2022/03/21 13:21:17;;;;;;;22.50;12.23;;;;;;;;;;5074939;28;20028;-77
2022/03/21 13:23:44;;;;;;;23.10;12.35;;;;;;;;;;5074371;28;20039;-76
2022/03/21 13:26:11;;;;;;;28.52;16.08;;;;;;;;;;5062705;28;20032;-76
2022/03/21 13:28:38;;;;;;;31.02;19.38;;;;;;;;;;5056406;28;20076;-76
2022/03/21 13:31:09;;;;;;;38.00;23.23;;;;;;;;;;5083538;28;20030;-76
2022/03/21 13:33:36;;;;;;;40.67;23.27;;;;;;;;;;5072555;28;20028;-76
2022/03/21 13:36:07;;;;;;;43.30;22.33;;;;;;;;;;5070785;28;20046;-76
2022/03/21 13:38:35;;;;;;;36.42;22.55;;;;;;;;;;5073394;28;20025;-76
2022/03/21 13:41:02;;;;;;;34.55;21.27;;;;;;;;;;5055161;28;20097;-77
2022/03/21 13:43:32;;;;;;;38.30;22.20;;;;;;;;;;5070121;28;20040;-77
2022/03/21 13:45:59;;;;;;;37.42;22.02;;;;;;;;;;5065130;28;20098;-77
2022/03/21 13:48:37;;;;;;;37.55;22.50;;;;;;;;;;5069208;28;20074;-76
2022/03/21 13:51:10;;;;;;;37.53;23.52;;;;;;;;;;5067034;28;20105;-77
2022/03/21 13:53:40;;;;;;;37.42;24.42;;;;;;;;;;5069644;28;20350;-76
2022/03/21 13:56:06;;;;;;;38.30;24.25;;;;;;;;;;5070441;28;20720;-77
2022/03/21 13:58:37;;;;;;;37.92;23.83;;;;;;;;;;5064646;28;20365;-77
2022/03/21 14:01:17;;;;;;;42.88;25.10;;;;;;;;;;5067583;28;20025;-76
2022/03/21 14:03:47;;;;;;;44.75;25.60;;;;;;;;;;5062407;28;20032;-75
2022/03/21 14:06:13;;;;;;;46.95;28.90;;;;;;;;;;5061555;28;20024;-76
2022/03/21 14:08:39;;;;;;;43.03;28.55;;;;;;;;;;5057793;28;20422;-76
2022/03/21 14:11:22;;;;;;;54.78;29.58;;;;;;;;;;5060334;28;20020;-75
2022/03/21 14:13:53;;;;;;;53.30;31.35;;;;;;;;;;5066031;28;20042;-77
2022/03/21 14:16:19;;;;;;;54.33;33.53;;;;;;;;;;5064270;28;20043;-76
2022/03/21 14:18:59;;;;;;;55.38;33.42;;;;;;;;;;5069078;28;20036;-77
2022/03/21 14:21:29;;;;;;;60.50;36.47;;;;;;;;;;5064592;28;20470;-77
2022/03/21 14:23:57;;;;;;;59.75;37.30;;;;;;;;;;5059309;28;20086;-77
2022/03/21 14:26:38;;;;;;;59.20;39.08;;;;;;;;;;5043663;28;20028;-76
2022/03/21 14:29:06;;;;;;;57.42;37.50;;;;;;;;;;5057067;28;20036;-76
2022/03/21 14:31:32;;;;;;;56.08;35.88;;;;;;;;;;5066448;28;20033;-77
2022/03/21 14:33:59;;;;;;;58.97;36.60;;;;;;;;;;5069772;28;20020;-75
2022/03/21 14:36:25;;;;;;;51.20;33.83;;;;;;;;;;5048794;28;20039;-77
2022/03/21 14:38:51;;;;;;;46.97;33.45;;;;;;;;;;5077189;28;20033;-77
2022/03/21 14:41:19;;;;;;;58.42;35.38;;;;;;;;;;5072221;28;20071;-77
2022/03/21 14:43:46;;;;;;;56.25;33.92;;;;;;;;;;5069820;28;20016;-76
2022/03/21 14:46:16;;;;;;;49.50;31.77;;;;;;;;;;5065463;28;20163;-76
2022/03/21 14:48:42;;;;;;;54.10;32.13;;;;;;;;;;5063690;28;20491;-76
2022/03/21 14:51:08;;;;;;;46.50;32.15;;;;;;;;;;5074480;28;20059;-77
2022/03/21 14:53:35;;;;;;;57.25;31.40;;;;;;;;;;5082739;28;20461;-77
2022/03/21 14:56:02;;;;;;;50.45;30.63;;;;;;;;;;5083424;28;20534;-75
2022/03/21 14:58:29;;;;;;;45.17;30.15;;;;;;;;;;5077001;28;20188;-76